sensor_id;sensor_type;location;lat;lon;timestamp;P1;durP1;ratioP1;P2;durP2;ratioP2
59854;SDS011;45732;52.850;6.896;2023-04-02T00:08:56;10.73;;;6.28;;
59854;SDS011;45732;52.850;6.896;2023-04-02T00:11:35;11.73;;;6.03;;
59854;SDS011;45732;52.850;6.896;2023-04-02T00:14:03;12.27;;;5.72;;
59854;SDS011;45732;52.850;6.896;2023-04-02T00:16:30;9.73;;;5.97;;
59854;SDS011;45732;52.850;6.896;2023-04-02T00:18:57;10.05;;;6.20;;
59854;SDS011;45732;52.850;6.896;2023-04-02T00:21:28;10.43;;;6.30;;
59854;SDS011;45732;52.850;6.896;2023-04-02T00:23:58;11.43;;;6.18;;
59854;SDS011;45732;52.850;6.896;2023-04-02T00:26:33;8.55;;;5.80;;
59854;SDS011;45732;52.850;6.896;2023-04-02T00:29:02;9.68;;;5.70;;
59854;SDS011;45732;52.850;6.896;2023-04-02T00:31:29;11.23;;;6.25;;
59854;SDS011;45732;52.850;6.896;2023-04-02T00:33:56;9.35;;;5.72;;
59854;SDS011;45732;52.850;6.896;2023-04-02T00:36:24;11.75;;;6.28;;
59854;SDS011;45732;52.850;6.896;2023-04-02T00:38:54;8.57;;;6.43;;
59854;SDS011;45732;52.850;6.896;2023-04-02T00:41:23;10.85;;;6.00;;
59854;SDS011;45732;52.850;6.896;2023-04-02T00:43:54;11.27;;;6.40;;
59854;SDS011;45732;52.850;6.896;2023-04-02T00:46:22;8.93;;;5.97;;
59854;SDS011;45732;52.850;6.896;2023-04-02T00:53:59;8.95;;;5.93;;
59854;SDS011;45732;52.850;6.896;2023-04-02T00:56:31;10.25;;;6.15;;
59854;SDS011;45732;52.850;6.896;2023-04-02T00:59:03;10.75;;;6.15;;
59854;SDS011;45732;52.850;6.896;2023-04-02T01:01:34;10.90;;;5.90;;
59854;SDS011;45732;52.850;6.896;2023-04-02T01:04:02;10.82;;;5.45;;
59854;SDS011;45732;52.850;6.896;2023-04-02T01:06:34;10.80;;;5.80;;
59854;SDS011;45732;52.850;6.896;2023-04-02T01:09:05;9.88;;;5.20;;
59854;SDS011;45732;52.850;6.896;2023-04-02T01:17:09;9.32;;;4.70;;
59854;SDS011;45732;52.850;6.896;2023-04-02T01:25:34;8.68;;;4.80;;
59854;SDS011;45732;52.850;6.896;2023-04-02T01:28:18;10.65;;;4.82;;
59854;SDS011;45732;52.850;6.896;2023-04-02T01:31:03;8.30;;;4.43;;
59854;SDS011;45732;52.850;6.896;2023-04-02T01:33:31;12.02;;;4.85;;
59854;SDS011;45732;52.850;6.896;2023-04-02T01:36:04;8.05;;;4.53;;
59854;SDS011;45732;52.850;6.896;2023-04-02T01:38:40;9.70;;;3.90;;
59854;SDS011;45732;52.850;6.896;2023-04-02T01:41:59;7.80;;;4.00;;
59854;SDS011;45732;52.850;6.896;2023-04-02T01:44:20;8.93;;;4.47;;
59854;SDS011;45732;52.850;6.896;2023-04-02T01:46:54;8.02;;;4.25;;
59854;SDS011;45732;52.850;6.896;2023-04-02T01:49:22;9.25;;;4.43;;
59854;SDS011;45732;52.850;6.896;2023-04-02T01:51:50;9.32;;;4.70;;
59854;SDS011;45732;52.850;6.896;2023-04-02T01:54:19;8.73;;;4.30;;
59854;SDS011;45732;52.850;6.896;2023-04-02T01:56:45;11.27;;;4.20;;
59854;SDS011;45732;52.850;6.896;2023-04-02T01:59:11;9.82;;;3.92;;
59854;SDS011;45732;52.850;6.896;2023-04-02T02:01:47;8.07;;;4.00;;
59854;SDS011;45732;52.850;6.896;2023-04-02T02:04:22;8.02;;;3.60;;
59854;SDS011;45732;52.850;6.896;2023-04-02T02:06:48;10.73;;;3.40;;
59854;SDS011;45732;52.850;6.896;2023-04-02T02:09:16;7.35;;;3.35;;
59854;SDS011;45732;52.850;6.896;2023-04-02T02:11:49;9.02;;;2.90;;
59854;SDS011;45732;52.850;6.896;2023-04-02T02:14:20;7.07;;;2.63;;
59854;SDS011;45732;52.850;6.896;2023-04-02T02:16:48;8.10;;;2.60;;
59854;SDS011;45732;52.850;6.896;2023-04-02T02:19:36;7.38;;;2.83;;
59854;SDS011;45732;52.850;6.896;2023-04-02T02:22:38;9.38;;;3.60;;
59854;SDS011;45732;52.850;6.896;2023-04-02T02:24:59;8.02;;;3.83;;
59854;SDS011;45732;52.850;6.896;2023-04-02T02:33:09;9.02;;;3.00;;
59854;SDS011;45732;52.850;6.896;2023-04-02T02:38:50;8.50;;;3.10;;
59854;SDS011;45732;52.850;6.896;2023-04-02T02:41:29;8.93;;;3.28;;
59854;SDS011;45732;52.850;6.896;2023-04-02T02:46:39;7.13;;;3.60;;
59854;SDS011;45732;52.850;6.896;2023-04-02T02:49:20;8.77;;;3.70;;
59854;SDS011;45732;52.850;6.896;2023-04-02T02:54:33;9.07;;;3.83;;
59854;SDS011;45732;52.850;6.896;2023-04-02T02:57:06;10.20;;;4.15;;
59854;SDS011;45732;52.850;6.896;2023-04-02T02:59:36;6.43;;;3.00;;
59854;SDS011;45732;52.850;6.896;2023-04-02T03:02:02;8.80;;;3.28;;
59854;SDS011;45732;52.850;6.896;2023-04-02T03:04:31;9.73;;;3.85;;
59854;SDS011;45732;52.850;6.896;2023-04-02T03:07:00;8.70;;;3.63;;
59854;SDS011;45732;52.850;6.896;2023-04-02T03:09:38;8.23;;;3.30;;
59854;SDS011;45732;52.850;6.896;2023-04-02T03:15:39;7.43;;;3.08;;
59854;SDS011;45732;52.850;6.896;2023-04-02T03:17:56;9.45;;;3.42;;
59854;SDS011;45732;52.850;6.896;2023-04-02T03:20:33;10.90;;;3.50;;
59854;SDS011;45732;52.850;6.896;2023-04-02T03:23:07;8.52;;;2.85;;
59854;SDS011;45732;52.850;6.896;2023-04-02T03:25:43;8.90;;;3.25;;
59854;SDS011;45732;52.850;6.896;2023-04-02T03:28:32;7.38;;;3.15;;
59854;SDS011;45732;52.850;6.896;2023-04-02T03:31:03;9.43;;;3.08;;
59854;SDS011;45732;52.850;6.896;2023-04-02T03:33:33;9.63;;;3.58;;
59854;SDS011;45732;52.850;6.896;2023-04-02T03:36:23;8.35;;;3.63;;
59854;SDS011;45732;52.850;6.896;2023-04-02T03:39:07;9.75;;;3.60;;
59854;SDS011;45732;52.850;6.896;2023-04-02T03:41:46;8.35;;;3.10;;
59854;SDS011;45732;52.850;6.896;2023-04-02T03:46:53;8.20;;;3.45;;
59854;SDS011;45732;52.850;6.896;2023-04-02T03:49:24;10.77;;;3.55;;
59854;SDS011;45732;52.850;6.896;2023-04-02T03:55:14;8.70;;;3.10;;
59854;SDS011;45732;52.850;6.896;2023-04-02T04:00:47;7.72;;;3.20;;
59854;SDS011;45732;52.850;6.896;2023-04-02T04:03:18;7.60;;;3.08;;
59854;SDS011;45732;52.850;6.896;2023-04-02T04:05:47;11.85;;;2.78;;
59854;SDS011;45732;52.850;6.896;2023-04-02T04:08:38;7.75;;;2.80;;
59854;SDS011;45732;52.850;6.896;2023-04-02T04:11:15;6.28;;;2.65;;
59854;SDS011;45732;52.850;6.896;2023-04-02T04:14:06;6.72;;;3.10;;
59854;SDS011;45732;52.850;6.896;2023-04-02T04:16:42;9.98;;;3.05;;
59854;SDS011;45732;52.850;6.896;2023-04-02T04:19:29;7.43;;;3.05;;
59854;SDS011;45732;52.850;6.896;2023-04-02T04:22:09;7.68;;;2.72;;
59854;SDS011;45732;52.850;6.896;2023-04-02T04:24:40;10.52;;;3.20;;
59854;SDS011;45732;52.850;6.896;2023-04-02T04:27:29;7.80;;;2.90;;
59854;SDS011;45732;52.850;6.896;2023-04-02T04:33:04;8.35;;;2.65;;
59854;SDS011;45732;52.850;6.896;2023-04-02T04:35:59;6.50;;;2.58;;
59854;SDS011;45732;52.850;6.896;2023-04-02T04:41:04;6.90;;;2.67;;
59854;SDS011;45732;52.850;6.896;2023-04-02T04:43:47;8.15;;;2.75;;
59854;SDS011;45732;52.850;6.896;2023-04-02T04:46:21;10.75;;;2.42;;
59854;SDS011;45732;52.850;6.896;2023-04-02T04:49:01;7.45;;;2.50;;
59854;SDS011;45732;52.850;6.896;2023-04-02T04:51:44;7.03;;;2.40;;
59854;SDS011;45732;52.850;6.896;2023-04-02T04:54:44;6.70;;;2.55;;
59854;SDS011;45732;52.850;6.896;2023-04-02T04:57:28;7.80;;;2.38;;
59854;SDS011;45732;52.850;6.896;2023-04-02T05:00:04;6.35;;;2.28;;
59854;SDS011;45732;52.850;6.896;2023-04-02T05:02:37;8.02;;;2.78;;
59854;SDS011;45732;52.850;6.896;2023-04-02T05:05:43;7.88;;;2.80;;
59854;SDS011;45732;52.850;6.896;2023-04-02T05:08:04;5.30;;;2.28;;
59854;SDS011;45732;52.850;6.896;2023-04-02T05:10:51;8.55;;;2.50;;
59854;SDS011;45732;52.850;6.896;2023-04-02T05:16:03;6.45;;;2.20;;
59854;SDS011;45732;52.850;6.896;2023-04-02T05:30:08;8.77;;;2.75;;
59854;SDS011;45732;52.850;6.896;2023-04-02T05:33:05;8.07;;;1.98;;
59854;SDS011;45732;52.850;6.896;2023-04-02T05:35:43;7.40;;;2.17;;
59854;SDS011;45732;52.850;6.896;2023-04-02T05:38:18;8.38;;;2.22;;
59854;SDS011;45732;52.850;6.896;2023-04-02T05:40:46;6.72;;;2.00;;
59854;SDS011;45732;52.850;6.896;2023-04-02T05:43:19;5.53;;;1.73;;
59854;SDS011;45732;52.850;6.896;2023-04-02T05:45:52;4.78;;;1.60;;
59854;SDS011;45732;52.850;6.896;2023-04-02T05:48:21;8.20;;;2.25;;
59854;SDS011;45732;52.850;6.896;2023-04-02T05:50:59;8.18;;;2.00;;
59854;SDS011;45732;52.850;6.896;2023-04-02T05:56:10;8.75;;;2.00;;
59854;SDS011;45732;52.850;6.896;2023-04-02T05:58:47;6.47;;;2.17;;
59854;SDS011;45732;52.850;6.896;2023-04-02T06:01:21;8.85;;;2.35;;
59854;SDS011;45732;52.850;6.896;2023-04-02T06:09:45;6.65;;;1.60;;
59854;SDS011;45732;52.850;6.896;2023-04-02T06:15:10;7.63;;;1.80;;
59854;SDS011;45732;52.850;6.896;2023-04-02T06:17:45;5.97;;;1.80;;
59854;SDS011;45732;52.850;6.896;2023-04-02T06:20:15;6.30;;;1.80;;
59854;SDS011;45732;52.850;6.896;2023-04-02T06:22:43;8.90;;;1.70;;
59854;SDS011;45732;52.850;6.896;2023-04-02T06:27:41;9.93;;;1.70;;
59854;SDS011;45732;52.850;6.896;2023-04-02T06:30:13;7.53;;;2.00;;
59854;SDS011;45732;52.850;6.896;2023-04-02T06:32:44;10.05;;;1.83;;
59854;SDS011;45732;52.850;6.896;2023-04-02T06:35:13;6.30;;;1.92;;
59854;SDS011;45732;52.850;6.896;2023-04-02T06:37:40;5.78;;;1.83;;
59854;SDS011;45732;52.850;6.896;2023-04-02T06:40:52;6.75;;;1.90;;
59854;SDS011;45732;52.850;6.896;2023-04-02T06:43:26;7.60;;;1.80;;
59854;SDS011;45732;52.850;6.896;2023-04-02T06:46:08;7.15;;;1.70;;
59854;SDS011;45732;52.850;6.896;2023-04-02T06:48:41;5.68;;;1.52;;
59854;SDS011;45732;52.850;6.896;2023-04-02T06:51:09;5.47;;;1.80;;
59854;SDS011;45732;52.850;6.896;2023-04-02T06:53:44;5.80;;;1.75;;
59854;SDS011;45732;52.850;6.896;2023-04-02T06:59:02;7.13;;;1.75;;
59854;SDS011;45732;52.850;6.896;2023-04-02T07:01:33;7.35;;;1.52;;
59854;SDS011;45732;52.850;6.896;2023-04-02T07:04:04;5.90;;;1.60;;
59854;SDS011;45732;52.850;6.896;2023-04-02T07:06:30;7.10;;;1.95;;
59854;SDS011;45732;52.850;6.896;2023-04-02T07:08:56;5.80;;;1.58;;
59854;SDS011;45732;52.850;6.896;2023-04-02T07:11:21;8.82;;;1.70;;
59854;SDS011;45732;52.850;6.896;2023-04-02T07:13:48;5.22;;;1.98;;
59854;SDS011;45732;52.850;6.896;2023-04-02T07:16:22;8.68;;;1.95;;
59854;SDS011;45732;52.850;6.896;2023-04-02T07:18:52;7.07;;;2.17;;
59854;SDS011;45732;52.850;6.896;2023-04-02T07:21:23;7.30;;;1.63;;
59854;SDS011;45732;52.850;6.896;2023-04-02T07:23:52;7.38;;;1.50;;
59854;SDS011;45732;52.850;6.896;2023-04-02T07:26:22;6.13;;;1.77;;
59854;SDS011;45732;52.850;6.896;2023-04-02T07:31:21;6.88;;;1.63;;
59854;SDS011;45732;52.850;6.896;2023-04-02T07:33:48;7.75;;;1.55;;
59854;SDS011;45732;52.850;6.896;2023-04-02T07:36:19;7.03;;;1.70;;
59854;SDS011;45732;52.850;6.896;2023-04-02T07:38:46;6.38;;;1.92;;
59854;SDS011;45732;52.850;6.896;2023-04-02T07:41:12;8.13;;;1.92;;
59854;SDS011;45732;52.850;6.896;2023-04-02T07:43:39;5.72;;;1.55;;
59854;SDS011;45732;52.850;6.896;2023-04-02T07:46:06;5.18;;;1.70;;
59854;SDS011;45732;52.850;6.896;2023-04-02T07:48:32;7.55;;;1.90;;
59854;SDS011;45732;52.850;6.896;2023-04-02T07:50:58;5.85;;;1.80;;
59854;SDS011;45732;52.850;6.896;2023-04-02T07:53:31;7.97;;;1.90;;
59854;SDS011;45732;52.850;6.896;2023-04-02T07:56:00;7.13;;;1.88;;
59854;SDS011;45732;52.850;6.896;2023-04-02T07:58:28;7.68;;;1.95;;
59854;SDS011;45732;52.850;6.896;2023-04-02T08:00:54;8.48;;;1.80;;
59854;SDS011;45732;52.850;6.896;2023-04-02T08:03:20;7.38;;;1.70;;
59854;SDS011;45732;52.850;6.896;2023-04-02T08:05:51;6.57;;;1.80;;
59854;SDS011;45732;52.850;6.896;2023-04-02T08:08:18;5.28;;;1.52;;
59854;SDS011;45732;52.850;6.896;2023-04-02T08:10:44;5.55;;;1.63;;
59854;SDS011;45732;52.850;6.896;2023-04-02T08:13:10;5.25;;;1.55;;
59854;SDS011;45732;52.850;6.896;2023-04-02T08:15:35;8.65;;;1.85;;
59854;SDS011;45732;52.850;6.896;2023-04-02T08:18:01;5.28;;;1.67;;
59854;SDS011;45732;52.850;6.896;2023-04-02T08:20:27;8.15;;;2.00;;
59854;SDS011;45732;52.850;6.896;2023-04-02T08:22:53;3.92;;;1.52;;
59854;SDS011;45732;52.850;6.896;2023-04-02T08:25:18;6.90;;;1.75;;
59854;SDS011;45732;52.850;6.896;2023-04-02T08:27:47;7.07;;;1.52;;
59854;SDS011;45732;52.850;6.896;2023-04-02T08:30:14;6.90;;;2.00;;
59854;SDS011;45732;52.850;6.896;2023-04-02T08:32:41;6.68;;;1.40;;
59854;SDS011;45732;52.850;6.896;2023-04-02T08:35:11;6.68;;;1.60;;
59854;SDS011;45732;52.850;6.896;2023-04-02T08:37:38;6.43;;;1.63;;
59854;SDS011;45732;52.850;6.896;2023-04-02T08:40:06;6.90;;;1.60;;
59854;SDS011;45732;52.850;6.896;2023-04-02T08:45:19;7.97;;;1.50;;
59854;SDS011;45732;52.850;6.896;2023-04-02T08:48:00;7.30;;;1.60;;
59854;SDS011;45732;52.850;6.896;2023-04-02T08:52:58;6.70;;;1.80;;
59854;SDS011;45732;52.850;6.896;2023-04-02T08:55:32;6.45;;;1.45;;
59854;SDS011;45732;52.850;6.896;2023-04-02T09:00:55;6.95;;;1.48;;
59854;SDS011;45732;52.850;6.896;2023-04-02T09:03:27;8.98;;;2.08;;
59854;SDS011;45732;52.850;6.896;2023-04-02T09:06:00;5.40;;;1.55;;
59854;SDS011;45732;52.850;6.896;2023-04-02T09:08:27;6.38;;;1.60;;
59854;SDS011;45732;52.850;6.896;2023-04-02T09:13:26;5.78;;;1.55;;
59854;SDS011;45732;52.850;6.896;2023-04-02T09:15:55;5.43;;;1.50;;
59854;SDS011;45732;52.850;6.896;2023-04-02T09:18:50;6.15;;;1.60;;
59854;SDS011;45732;52.850;6.896;2023-04-02T09:26:27;7.78;;;1.83;;
59854;SDS011;45732;52.850;6.896;2023-04-02T09:31:41;4.00;;;1.50;;
59854;SDS011;45732;52.850;6.896;2023-04-02T09:34:26;6.65;;;1.63;;
59854;SDS011;45732;52.850;6.896;2023-04-02T09:37:32;9.95;;;1.80;;
59854;SDS011;45732;52.850;6.896;2023-04-02T09:39:51;3.88;;;1.70;;
59854;SDS011;45732;52.850;6.896;2023-04-02T09:42:34;6.78;;;1.92;;
59854;SDS011;45732;52.850;6.896;2023-04-02T09:45:13;5.68;;;2.15;;
59854;SDS011;45732;52.850;6.896;2023-04-02T09:47:43;5.63;;;1.40;;
59854;SDS011;45732;52.850;6.896;2023-04-02T09:50:22;4.85;;;1.90;;
59854;SDS011;45732;52.850;6.896;2023-04-02T09:52:51;6.03;;;1.58;;
59854;SDS011;45732;52.850;6.896;2023-04-02T09:55:22;7.18;;;1.67;;
59854;SDS011;45732;52.850;6.896;2023-04-02T09:58:05;5.90;;;1.48;;
59854;SDS011;45732;52.850;6.896;2023-04-02T10:00:35;6.10;;;1.65;;
59854;SDS011;45732;52.850;6.896;2023-04-02T10:03:16;5.75;;;1.63;;
59854;SDS011;45732;52.850;6.896;2023-04-02T10:05:45;6.53;;;1.55;;
59854;SDS011;45732;52.850;6.896;2023-04-02T10:08:26;4.60;;;1.63;;
59854;SDS011;45732;52.850;6.896;2023-04-02T10:10:53;4.60;;;1.42;;
59854;SDS011;45732;52.850;6.896;2023-04-02T10:13:33;6.75;;;1.80;;
59854;SDS011;45732;52.850;6.896;2023-04-02T10:18:48;5.17;;;1.60;;
59854;SDS011;45732;52.850;6.896;2023-04-02T10:21:22;4.95;;;1.70;;
59854;SDS011;45732;52.850;6.896;2023-04-02T10:23:51;6.32;;;1.73;;
59854;SDS011;45732;52.850;6.896;2023-04-02T10:31:58;7.78;;;1.83;;
59854;SDS011;45732;52.850;6.896;2023-04-02T10:34:43;6.00;;;1.52;;
59854;SDS011;45732;52.850;6.896;2023-04-02T10:37:26;7.07;;;1.58;;
59854;SDS011;45732;52.850;6.896;2023-04-02T10:45:55;8.45;;;1.83;;
59854;SDS011;45732;52.850;6.896;2023-04-02T10:51:32;5.95;;;1.70;;
59854;SDS011;45732;52.850;6.896;2023-04-02T10:54:16;8.27;;;2.17;;
59854;SDS011;45732;52.850;6.896;2023-04-02T10:56:47;7.00;;;1.60;;
59854;SDS011;45732;52.850;6.896;2023-04-02T10:59:18;5.80;;;1.50;;
59854;SDS011;45732;52.850;6.896;2023-04-02T11:01:53;5.45;;;1.95;;
59854;SDS011;45732;52.850;6.896;2023-04-02T11:04:26;5.88;;;1.50;;
59854;SDS011;45732;52.850;6.896;2023-04-02T11:07:00;5.38;;;1.52;;
59854;SDS011;45732;52.850;6.896;2023-04-02T11:09:30;4.03;;;1.55;;
59854;SDS011;45732;52.850;6.896;2023-04-02T11:12:01;4.75;;;1.52;;
59854;SDS011;45732;52.850;6.896;2023-04-02T11:14:30;4.50;;;1.40;;
59854;SDS011;45732;52.850;6.896;2023-04-02T11:16:57;4.35;;;1.30;;
59854;SDS011;45732;52.850;6.896;2023-04-02T11:19:33;6.18;;;1.55;;
59854;SDS011;45732;52.850;6.896;2023-04-02T11:22:00;7.43;;;1.63;;
59854;SDS011;45732;52.850;6.896;2023-04-02T11:29:35;5.70;;;1.50;;
59854;SDS011;45732;52.850;6.896;2023-04-02T11:42:41;5.88;;;1.35;;
59854;SDS011;45732;52.850;6.896;2023-04-02T11:50:41;5.05;;;1.42;;
59854;SDS011;45732;52.850;6.896;2023-04-02T11:55:36;4.63;;;1.40;;
59854;SDS011;45732;52.850;6.896;2023-04-02T12:12:28;8.40;;;1.48;;
59854;SDS011;45732;52.850;6.896;2023-04-02T12:14:58;5.53;;;1.40;;
59854;SDS011;45732;52.850;6.896;2023-04-02T12:19:59;4.88;;;1.58;;
59854;SDS011;45732;52.850;6.896;2023-04-02T12:22:33;3.22;;;1.05;;
59854;SDS011;45732;52.850;6.896;2023-04-02T12:25:17;4.78;;;1.35;;
59854;SDS011;45732;52.850;6.896;2023-04-02T12:28:06;3.85;;;1.40;;
59854;SDS011;45732;52.850;6.896;2023-04-02T12:30:44;4.22;;;1.35;;
59854;SDS011;45732;52.850;6.896;2023-04-02T12:35:47;4.88;;;1.30;;
59854;SDS011;45732;52.850;6.896;2023-04-02T12:38:18;6.80;;;1.30;;
59854;SDS011;45732;52.850;6.896;2023-04-02T12:40:51;4.15;;;1.20;;
59854;SDS011;45732;52.850;6.896;2023-04-02T12:43:28;4.88;;;1.10;;
59854;SDS011;45732;52.850;6.896;2023-04-02T12:45:59;5.20;;;1.73;;
59854;SDS011;45732;52.850;6.896;2023-04-02T12:48:28;5.82;;;1.50;;
59854;SDS011;45732;52.850;6.896;2023-04-02T12:50:55;5.13;;;1.58;;
59854;SDS011;45732;52.850;6.896;2023-04-02T12:53:28;4.28;;;1.30;;
59854;SDS011;45732;52.850;6.896;2023-04-02T12:55:59;4.25;;;1.30;;
59854;SDS011;45732;52.850;6.896;2023-04-02T12:58:26;4.57;;;1.30;;
59854;SDS011;45732;52.850;6.896;2023-04-02T13:01:14;6.55;;;1.55;;
59854;SDS011;45732;52.850;6.896;2023-04-02T13:06:36;5.55;;;1.33;;
59854;SDS011;45732;52.850;6.896;2023-04-02T13:09:04;5.05;;;1.55;;
59854;SDS011;45732;52.850;6.896;2023-04-02T13:11:38;5.20;;;1.40;;
59854;SDS011;45732;52.850;6.896;2023-04-02T13:14:07;6.43;;;1.70;;
59854;SDS011;45732;52.850;6.896;2023-04-02T13:16:41;3.33;;;1.23;;
59854;SDS011;45732;52.850;6.896;2023-04-02T13:19:08;4.22;;;1.38;;
59854;SDS011;45732;52.850;6.896;2023-04-02T13:21:40;5.80;;;1.35;;
59854;SDS011;45732;52.850;6.896;2023-04-02T13:24:14;3.05;;;1.17;;
59854;SDS011;45732;52.850;6.896;2023-04-02T13:26:52;3.67;;;0.98;;
59854;SDS011;45732;52.850;6.896;2023-04-02T13:29:30;4.47;;;1.58;;
59854;SDS011;45732;52.850;6.896;2023-04-02T13:32:01;4.82;;;1.42;;
59854;SDS011;45732;52.850;6.896;2023-04-02T13:34:29;2.95;;;1.08;;
59854;SDS011;45732;52.850;6.896;2023-04-02T13:36:55;4.38;;;1.30;;
59854;SDS011;45732;52.850;6.896;2023-04-02T13:39:21;6.78;;;1.52;;
59854;SDS011;45732;52.850;6.896;2023-04-02T13:41:57;5.32;;;1.20;;
59854;SDS011;45732;52.850;6.896;2023-04-02T13:44:26;4.32;;;1.20;;
59854;SDS011;45732;52.850;6.896;2023-04-02T13:46:54;3.55;;;1.13;;
59854;SDS011;45732;52.850;6.896;2023-04-02T13:49:21;4.93;;;1.17;;
59854;SDS011;45732;52.850;6.896;2023-04-02T13:51:50;4.85;;;1.27;;
59854;SDS011;45732;52.850;6.896;2023-04-02T13:54:20;3.28;;;1.02;;
59854;SDS011;45732;52.850;6.896;2023-04-02T13:56:53;3.63;;;1.20;;
59854;SDS011;45732;52.850;6.896;2023-04-02T13:59:19;4.28;;;1.20;;
59854;SDS011;45732;52.850;6.896;2023-04-02T14:01:46;3.90;;;1.23;;
59854;SDS011;45732;52.850;6.896;2023-04-02T14:04:16;4.35;;;1.20;;
59854;SDS011;45732;52.850;6.896;2023-04-02T14:15:02;4.50;;;1.02;;
59854;SDS011;45732;52.850;6.896;2023-04-02T14:31:32;3.83;;;1.10;;
59854;SDS011;45732;52.850;6.896;2023-04-02T14:34:16;4.82;;;1.25;;
59854;SDS011;45732;52.850;6.896;2023-04-02T14:37:19;3.42;;;1.17;;
59854;SDS011;45732;52.850;6.896;2023-04-02T14:40:26;3.72;;;1.15;;
59854;SDS011;45732;52.850;6.896;2023-04-02T14:45:45;4.60;;;1.02;;
59854;SDS011;45732;52.850;6.896;2023-04-02T14:50:48;2.35;;;0.80;;
59854;SDS011;45732;52.850;6.896;2023-04-02T14:53:18;3.33;;;1.08;;
59854;SDS011;45732;52.850;6.896;2023-04-02T14:55:49;5.60;;;1.30;;
59854;SDS011;45732;52.850;6.896;2023-04-02T15:01:39;4.60;;;1.10;;
59854;SDS011;45732;52.850;6.896;2023-04-02T15:04:12;3.92;;;1.00;;
59854;SDS011;45732;52.850;6.896;2023-04-02T15:06:50;2.47;;;1.00;;
59854;SDS011;45732;52.850;6.896;2023-04-02T15:09:34;2.35;;;0.90;;
59854;SDS011;45732;52.850;6.896;2023-04-02T15:12:07;4.32;;;0.90;;
59854;SDS011;45732;52.850;6.896;2023-04-02T15:14:39;3.17;;;1.00;;
59854;SDS011;45732;52.850;6.896;2023-04-02T15:17:10;4.13;;;1.08;;
59854;SDS011;45732;52.850;6.896;2023-04-02T15:19:36;3.83;;;1.00;;
59854;SDS011;45732;52.850;6.896;2023-04-02T15:24:57;2.63;;;0.90;;
59854;SDS011;45732;52.850;6.896;2023-04-02T15:27:54;5.15;;;1.15;;
59854;SDS011;45732;52.850;6.896;2023-04-02T15:30:24;2.42;;;0.90;;
59854;SDS011;45732;52.850;6.896;2023-04-02T15:33:07;3.50;;;1.00;;
59854;SDS011;45732;52.850;6.896;2023-04-02T15:36:03;1.75;;;0.82;;
59854;SDS011;45732;52.850;6.896;2023-04-02T15:44:31;4.35;;;1.38;;
59854;SDS011;45732;52.850;6.896;2023-04-02T15:50:02;3.10;;;1.13;;
59854;SDS011;45732;52.850;6.896;2023-04-02T15:53:00;3.80;;;1.00;;
59854;SDS011;45732;52.850;6.896;2023-04-02T15:56:07;6.22;;;2.30;;
59854;SDS011;45732;52.850;6.896;2023-04-02T16:04:23;6.18;;;2.58;;
59854;SDS011;45732;52.850;6.896;2023-04-02T16:12:41;5.00;;;0.88;;
59854;SDS011;45732;52.850;6.896;2023-04-02T16:15:21;2.28;;;0.90;;
59854;SDS011;45732;52.850;6.896;2023-04-02T16:18:06;2.83;;;1.02;;
59854;SDS011;45732;52.850;6.896;2023-04-02T16:20:58;3.75;;;1.05;;
59854;SDS011;45732;52.850;6.896;2023-04-02T16:23:34;3.22;;;1.00;;
59854;SDS011;45732;52.850;6.896;2023-04-02T16:26:16;2.90;;;0.82;;
59854;SDS011;45732;52.850;6.896;2023-04-02T16:34:53;3.58;;;1.02;;
59854;SDS011;45732;52.850;6.896;2023-04-02T16:45:51;3.83;;;1.08;;
59854;SDS011;45732;52.850;6.896;2023-04-02T16:54:30;2.83;;;1.20;;
59854;SDS011;45732;52.850;6.896;2023-04-02T16:57:12;2.78;;;1.00;;
59854;SDS011;45732;52.850;6.896;2023-04-02T17:12:43;3.83;;;1.20;;
59854;SDS011;45732;52.850;6.896;2023-04-02T17:15:23;4.10;;;1.20;;
59854;SDS011;45732;52.850;6.896;2023-04-02T17:17:56;4.03;;;1.20;;
59854;SDS011;45732;52.850;6.896;2023-04-02T17:20:23;3.30;;;1.10;;
59854;SDS011;45732;52.850;6.896;2023-04-02T17:22:50;4.40;;;1.30;;
59854;SDS011;45732;52.850;6.896;2023-04-02T17:25:23;2.35;;;1.00;;
59854;SDS011;45732;52.850;6.896;2023-04-02T17:27:53;2.63;;;1.20;;
59854;SDS011;45732;52.850;6.896;2023-04-02T17:30:29;3.33;;;1.27;;
59854;SDS011;45732;52.850;6.896;2023-04-02T17:33:11;4.50;;;1.30;;
59854;SDS011;45732;52.850;6.896;2023-04-02T17:38:29;3.08;;;1.38;;
59854;SDS011;45732;52.850;6.896;2023-04-02T17:41:22;3.10;;;1.05;;
59854;SDS011;45732;52.850;6.896;2023-04-02T18:05:26;3.45;;;1.05;;
59854;SDS011;45732;52.850;6.896;2023-04-02T18:13:40;2.70;;;1.00;;
59854;SDS011;45732;52.850;6.896;2023-04-02T18:16:27;4.57;;;1.42;;
59854;SDS011;45732;52.850;6.896;2023-04-02T18:19:37;2.08;;;0.93;;
59854;SDS011;45732;52.850;6.896;2023-04-02T18:30:39;4.07;;;1.00;;
59854;SDS011;45732;52.850;6.896;2023-04-02T18:33:26;4.68;;;1.10;;
59854;SDS011;45732;52.850;6.896;2023-04-02T18:36:18;2.72;;;1.05;;
59854;SDS011;45732;52.850;6.896;2023-04-02T18:38:59;3.58;;;1.13;;
59854;SDS011;45732;52.850;6.896;2023-04-02T18:46:47;1.85;;;0.90;;
59854;SDS011;45732;52.850;6.896;2023-04-02T18:51:48;2.22;;;1.30;;
59854;SDS011;45732;52.850;6.896;2023-04-02T18:54:34;2.72;;;1.20;;
59854;SDS011;45732;52.850;6.896;2023-04-02T18:57:13;3.97;;;1.17;;
59854;SDS011;45732;52.850;6.896;2023-04-02T19:00:15;4.32;;;1.55;;
59854;SDS011;45732;52.850;6.896;2023-04-02T19:03:03;2.92;;;1.33;;
59854;SDS011;45732;52.850;6.896;2023-04-02T19:05:46;3.78;;;1.30;;
59854;SDS011;45732;52.850;6.896;2023-04-02T19:08:17;4.10;;;1.33;;
59854;SDS011;45732;52.850;6.896;2023-04-02T19:10:52;3.55;;;1.40;;
59854;SDS011;45732;52.850;6.896;2023-04-02T19:13:22;2.80;;;1.25;;
59854;SDS011;45732;52.850;6.896;2023-04-02T19:32:53;7.72;;;2.38;;
59854;SDS011;45732;52.850;6.896;2023-04-02T19:35:26;5.90;;;2.17;;
59854;SDS011;45732;52.850;6.896;2023-04-02T19:43:48;5.88;;;2.50;;
59854;SDS011;45732;52.850;6.896;2023-04-02T19:46:14;7.25;;;2.35;;
59854;SDS011;45732;52.850;6.896;2023-04-02T19:48:46;3.95;;;2.08;;
59854;SDS011;45732;52.850;6.896;2023-04-02T19:51:27;4.88;;;1.77;;
59854;SDS011;45732;52.850;6.896;2023-04-02T19:53:53;5.07;;;2.00;;
59854;SDS011;45732;52.850;6.896;2023-04-02T19:56:18;6.35;;;2.00;;
59854;SDS011;45732;52.850;6.896;2023-04-02T19:58:45;3.47;;;1.65;;
59854;SDS011;45732;52.850;6.896;2023-04-02T20:01:11;3.92;;;1.63;;
59854;SDS011;45732;52.850;6.896;2023-04-02T20:03:37;6.15;;;1.70;;
59854;SDS011;45732;52.850;6.896;2023-04-02T20:06:03;6.63;;;1.95;;
59854;SDS011;45732;52.850;6.896;2023-04-02T20:08:29;3.13;;;1.60;;
59854;SDS011;45732;52.850;6.896;2023-04-02T20:10:55;5.20;;;1.73;;
59854;SDS011;45732;52.850;6.896;2023-04-02T20:13:22;5.80;;;1.80;;
59854;SDS011;45732;52.850;6.896;2023-04-02T20:15:48;5.35;;;2.35;;
59854;SDS011;45732;52.850;6.896;2023-04-02T20:18:15;4.75;;;1.73;;
59854;SDS011;45732;52.850;6.896;2023-04-02T20:20:44;6.32;;;1.90;;
59854;SDS011;45732;52.850;6.896;2023-04-02T20:23:10;4.97;;;1.67;;
59854;SDS011;45732;52.850;6.896;2023-04-02T20:25:36;5.57;;;1.95;;
59854;SDS011;45732;52.850;6.896;2023-04-02T20:28:01;4.60;;;1.63;;
59854;SDS011;45732;52.850;6.896;2023-04-02T20:30:28;4.40;;;1.70;;
59854;SDS011;45732;52.850;6.896;2023-04-02T20:32:59;6.53;;;2.00;;
59854;SDS011;45732;52.850;6.896;2023-04-02T20:35:25;3.55;;;1.58;;
59854;SDS011;45732;52.850;6.896;2023-04-02T20:37:51;4.45;;;1.80;;
59854;SDS011;45732;52.850;6.896;2023-04-02T20:40:17;5.28;;;1.70;;
59854;SDS011;45732;52.850;6.896;2023-04-02T20:42:43;5.40;;;1.83;;
59854;SDS011;45732;52.850;6.896;2023-04-02T20:45:08;3.47;;;1.65;;
59854;SDS011;45732;52.850;6.896;2023-04-02T20:47:35;7.28;;;2.03;;
59854;SDS011;45732;52.850;6.896;2023-04-02T20:50:00;4.80;;;1.75;;
59854;SDS011;45732;52.850;6.896;2023-04-02T20:52:26;4.60;;;1.90;;